sensor_id;sensor_type;location;lat;lon;timestamp;pressure;altitude;pressure_sealevel;temperature;humidity
9415;BME280;4746;35.664;139.738;2022-07-22T00:01:22;98949.50;;;33.02;57.93
9415;BME280;4746;35.664;139.738;2022-07-22T00:03:49;98970.53;;;32.95;57.71
9415;BME280;4746;35.664;139.738;2022-07-22T00:06:17;98980.28;;;32.87;58.46
9415;BME280;4746;35.664;139.738;2022-07-22T00:08:45;98962.50;;;32.79;58.51
9415;BME280;4746;35.664;139.738;2022-07-22T00:11:12;98956.97;;;32.73;59.01
9415;BME280;4746;35.664;139.738;2022-07-22T00:13:40;98955.97;;;32.66;59.39
9415;BME280;4746;35.664;139.738;2022-07-22T00:16:08;98949.97;;;32.64;59.98
9415;BME280;4746;35.664;139.738;2022-07-22T00:18:35;98941.03;;;32.65;60.15
9415;BME280;4746;35.664;139.738;2022-07-22T00:21:03;98921.06;;;32.61;60.82
9415;BME280;4746;35.664;139.738;2022-07-22T00:23:31;98918.75;;;32.58;60.95
9415;BME280;4746;35.664;139.738;2022-07-22T00:25:59;98935.09;;;32.53;61.31
9415;BME280;4746;35.664;139.738;2022-07-22T00:28:26;98930.94;;;32.43;61.51
9415;BME280;4746;35.664;139.738;2022-07-22T00:30:54;98910.78;;;32.33;62.19
9415;BME280;4746;35.664;139.738;2022-07-22T00:33:22;98935.81;;;32.30;62.46
9415;BME280;4746;35.664;139.738;2022-07-22T00:35:49;98914.53;;;32.22;63.12
9415;BME280;4746;35.664;139.738;2022-07-22T00:38:17;98884.53;;;32.22;63.20
9415;BME280;4746;35.664;139.738;2022-07-22T00:40:45;98909.91;;;32.24;63.48
9415;BME280;4746;35.664;139.738;2022-07-22T00:43:14;98909.91;;;32.24;63.89
9415;BME280;4746;35.664;139.738;2022-07-22T00:45:42;98897.28;;;32.18;63.83
9415;BME280;4746;35.664;139.738;2022-07-22T00:48:09;98885.97;;;32.16;64.38
9415;BME280;4746;35.664;139.738;2022-07-22T00:50:37;98878.72;;;32.18;64.72
9415;BME280;4746;35.664;139.738;2022-07-22T00:53:05;98868.41;;;32.15;65.19
9415;BME280;4746;35.664;139.738;2022-07-22T00:55:35;98887.94;;;32.14;64.82
9415;BME280;4746;35.664;139.738;2022-07-22T00:58:04;98881.63;;;32.07;65.16
9415;BME280;4746;35.664;139.738;2022-07-22T01:00:32;98871.31;;;32.04;65.31
9415;BME280;4746;35.664;139.738;2022-07-22T01:02:59;98858.47;;;32.00;65.45
9415;BME280;4746;35.664;139.738;2022-07-22T01:05:27;98849.03;;;31.97;65.80
9415;BME280;4746;35.664;139.738;2022-07-22T01:07:55;98853.34;;;31.98;65.73
9415;BME280;4746;35.664;139.738;2022-07-22T01:10:22;98877.38;;;31.97;65.97
9415;BME280;4746;35.664;139.738;2022-07-22T01:12:50;98861.28;;;31.98;66.44
9415;BME280;4746;35.664;139.738;2022-07-22T01:15:17;98881.34;;;32.01;66.05
9415;BME280;4746;35.664;139.738;2022-07-22T01:17:45;98875.25;;;32.00;66.03
9415;BME280;4746;35.664;139.738;2022-07-22T01:20:13;98873.72;;;31.98;66.31
9415;BME280;4746;35.664;139.738;2022-07-22T01:22:40;98878.34;;;31.96;66.61
9415;BME280;4746;35.664;139.738;2022-07-22T01:25:09;98872.97;;;32.05;66.67
9415;BME280;4746;35.664;139.738;2022-07-22T01:27:36;98887.66;;;32.17;66.44
9415;BME280;4746;35.664;139.738;2022-07-22T01:30:08;98860.16;;;32.51;65.71
9415;BME280;4746;35.664;139.738;2022-07-22T01:32:36;98861.41;;;32.65;65.27
9415;BME280;4746;35.664;139.738;2022-07-22T01:35:04;98874.91;;;32.79;64.81
9415;BME280;4746;35.664;139.738;2022-07-22T01:37:35;98849.25;;;32.96;64.04
9415;BME280;4746;35.664;139.738;2022-07-22T01:40:04;98853.41;;;32.98;64.06
9415;BME280;4746;35.664;139.738;2022-07-22T01:42:32;98873.31;;;33.02;64.00
9415;BME280;4746;35.664;139.738;2022-07-22T01:44:59;98832.03;;;33.16;63.16
9415;BME280;4746;35.664;139.738;2022-07-22T01:47:27;98840.03;;;33.23;62.88
9415;BME280;4746;35.664;139.738;2022-07-22T01:49:54;98841.88;;;33.39;62.12
9415;BME280;4746;35.664;139.738;2022-07-22T01:52:22;98823.47;;;33.61;61.72
9415;BME280;4746;35.664;139.738;2022-07-22T01:54:49;98834.41;;;33.90;60.48
9415;BME280;4746;35.664;139.738;2022-07-22T01:57:17;98828.06;;;34.07;60.08
9415;BME280;4746;35.664;139.738;2022-07-22T01:59:49;98813.41;;;34.27;59.27
9415;BME280;4746;35.664;139.738;2022-07-22T02:02:17;98823.50;;;34.39;58.72
9415;BME280;4746;35.664;139.738;2022-07-22T02:04:44;98809.19;;;34.40;58.40
9415;BME280;4746;35.664;139.738;2022-07-22T02:07:12;98812.53;;;34.42;57.84
9415;BME280;4746;35.664;139.738;2022-07-22T02:09:39;98804.00;;;34.55;58.18
9415;BME280;4746;35.664;139.738;2022-07-22T02:12:07;98809.97;;;34.64;57.28
9415;BME280;4746;35.664;139.738;2022-07-22T02:14:35;98817.59;;;34.67;57.23
9415;BME280;4746;35.664;139.738;2022-07-22T02:17:03;98785.66;;;34.60;57.29
9415;BME280;4746;35.664;139.738;2022-07-22T02:19:31;98788.34;;;34.60;57.82
9415;BME280;4746;35.664;139.738;2022-07-22T02:21:58;98782.19;;;34.51;57.18
9415;BME280;4746;35.664;139.738;2022-07-22T02:24:26;98786.72;;;34.43;57.53
9415;BME280;4746;35.664;139.738;2022-07-22T02:26:53;98800.38;;;34.48;57.50
9415;BME280;4746;35.664;139.738;2022-07-22T02:29:21;98786.81;;;34.65;56.99
9415;BME280;4746;35.664;139.738;2022-07-22T02:31:49;98777.72;;;34.82;56.80
9415;BME280;4746;35.664;139.738;2022-07-22T02:34:17;98780.09;;;34.77;56.81
9415;BME280;4746;35.664;139.738;2022-07-22T02:36:44;98791.53;;;34.85;56.73
9415;BME280;4746;35.664;139.738;2022-07-22T02:39:12;98753.16;;;35.02;56.04
9415;BME280;4746;35.664;139.738;2022-07-22T02:41:40;98765.72;;;35.16;55.97
9415;BME280;4746;35.664;139.738;2022-07-22T02:44:07;98741.03;;;35.22;55.91
9415;BME280;4746;35.664;139.738;2022-07-22T02:46:35;98760.91;;;35.34;55.73
9415;BME280;4746;35.664;139.738;2022-07-22T02:49:03;98756.47;;;35.49;55.30
9415;BME280;4746;35.664;139.738;2022-07-22T02:51:31;98754.56;;;35.57;54.80
9415;BME280;4746;35.664;139.738;2022-07-22T02:53:58;98773.25;;;35.72;54.52
9415;BME280;4746;35.664;139.738;2022-07-22T02:56:26;98772.72;;;35.91;54.06
9415;BME280;4746;35.664;139.738;2022-07-22T02:58:53;98766.91;;;35.87;54.00
9415;BME280;4746;35.664;139.738;2022-07-22T03:01:21;98770.28;;;36.04;53.57
9415;BME280;4746;35.664;139.738;2022-07-22T03:03:49;98761.63;;;36.16;53.10
9415;BME280;4746;35.664;139.738;2022-07-22T03:06:16;98732.09;;;36.32;52.67
9415;BME280;4746;35.664;139.738;2022-07-22T03:08:44;98737.97;;;36.27;52.48
9415;BME280;4746;35.664;139.738;2022-07-22T03:11:12;98754.19;;;36.40;52.44
9415;BME280;4746;35.664;139.738;2022-07-22T03:13:39;98736.78;;;36.65;51.63
9415;BME280;4746;35.664;139.738;2022-07-22T03:16:07;98734.53;;;36.83;51.46
9415;BME280;4746;35.664;139.738;2022-07-22T03:18:35;98729.88;;;36.85;51.19
9415;BME280;4746;35.664;139.738;2022-07-22T03:21:03;98717.78;;;36.89;51.12
9415;BME280;4746;35.664;139.738;2022-07-22T03:23:30;98713.97;;;36.98;50.97
9415;BME280;4746;35.664;139.738;2022-07-22T03:25:58;98725.72;;;37.03;50.84
9415;BME280;4746;35.664;139.738;2022-07-22T03:28:26;98718.81;;;37.09;50.55
9415;BME280;4746;35.664;139.738;2022-07-22T03:30:54;98704.50;;;37.23;50.68
9415;BME280;4746;35.664;139.738;2022-07-22T03:33:22;98707.19;;;37.44;49.96
9415;BME280;4746;35.664;139.738;2022-07-22T03:35:49;98702.41;;;37.60;49.90
9415;BME280;4746;35.664;139.738;2022-07-22T03:38:17;98709.50;;;37.74;48.73
9415;BME280;4746;35.664;139.738;2022-07-22T03:40:46;98710.59;;;37.86;48.65
9415;BME280;4746;35.664;139.738;2022-07-22T03:43:13;98718.50;;;38.00;48.95
9415;BME280;4746;35.664;139.738;2022-07-22T03:45:41;98700.59;;;38.01;48.63
9415;BME280;4746;35.664;139.738;2022-07-22T03:48:09;98702.78;;;37.84;48.45
9415;BME280;4746;35.664;139.738;2022-07-22T03:50:37;98709.56;;;37.80;48.76
9415;BME280;4746;35.664;139.738;2022-07-22T03:53:04;98741.88;;;37.58;48.23
9415;BME280;4746;35.664;139.738;2022-07-22T03:55:32;98709.63;;;37.18;47.36
9415;BME280;4746;35.664;139.738;2022-07-22T03:57:59;98720.81;;;37.07;46.90
9415;BME280;4746;35.664;139.738;2022-07-22T04:00:27;98701.91;;;37.08;47.35
9415;BME280;4746;35.664;139.738;2022-07-22T04:02:55;98728.94;;;37.13;47.18
9415;BME280;4746;35.664;139.738;2022-07-22T04:05:22;98730.56;;;37.14;46.00
9415;BME280;4746;35.664;139.738;2022-07-22T04:07:50;98721.84;;;37.06;46.58
9415;BME280;4746;35.664;139.738;2022-07-22T04:10:18;98709.31;;;37.06;46.07
9415;BME280;4746;35.664;139.738;2022-07-22T04:12:45;98722.94;;;37.11;46.00
9415;BME280;4746;35.664;139.738;2022-07-22T04:15:13;98711.91;;;37.21;46.10
9415;BME280;4746;35.664;139.738;2022-07-22T04:17:40;98702.75;;;37.30;46.05
9415;BME280;4746;35.664;139.738;2022-07-22T04:20:09;98687.41;;;37.38;46.10
9415;BME280;4746;35.664;139.738;2022-07-22T04:22:36;98680.00;;;37.67;45.76
9415;BME280;4746;35.664;139.738;2022-07-22T04:25:05;98674.03;;;37.99;45.18
9415;BME280;4746;35.664;139.738;2022-07-22T04:27:32;98684.91;;;38.31;43.91
9415;BME280;4746;35.664;139.738;2022-07-22T04:30:00;98694.44;;;38.47;43.96
9415;BME280;4746;35.664;139.738;2022-07-22T04:32:28;98657.63;;;38.62;43.47
9415;BME280;4746;35.664;139.738;2022-07-22T04:34:56;98686.09;;;38.76;43.18
9415;BME280;4746;35.664;139.738;2022-07-22T04:37:23;98676.00;;;38.78;42.91
9415;BME280;4746;35.664;139.738;2022-07-22T04:39:51;98659.72;;;38.73;42.65
9415;BME280;4746;35.664;139.738;2022-07-22T04:42:19;98656.00;;;38.99;42.61
9415;BME280;4746;35.664;139.738;2022-07-22T04:44:46;98651.72;;;39.24;41.97
9415;BME280;4746;35.664;139.738;2022-07-22T04:47:14;98654.19;;;39.45;41.56
9415;BME280;4746;35.664;139.738;2022-07-22T04:49:42;98643.22;;;39.66;40.81
9415;BME280;4746;35.664;139.738;2022-07-22T04:52:09;98641.72;;;39.89;40.74
9415;BME280;4746;35.664;139.738;2022-07-22T04:54:37;98643.09;;;40.11;39.71
9415;BME280;4746;35.664;139.738;2022-07-22T04:57:05;98634.19;;;40.17;38.79
9415;BME280;4746;35.664;139.738;2022-07-22T04:59:32;98639.75;;;40.16;38.43
9415;BME280;4746;35.664;139.738;2022-07-22T05:02:00;98648.88;;;40.15;38.87
9415;BME280;4746;35.664;139.738;2022-07-22T05:04:27;98648.91;;;40.02;39.04
9415;BME280;4746;35.664;139.738;2022-07-22T05:06:55;98649.94;;;39.94;39.24
9415;BME280;4746;35.664;139.738;2022-07-22T05:09:23;98644.81;;;39.93;38.86
9415;BME280;4746;35.664;139.738;2022-07-22T05:11:51;98640.69;;;39.97;38.87
9415;BME280;4746;35.664;139.738;2022-07-22T05:14:18;98658.13;;;40.12;38.78
9415;BME280;4746;35.664;139.738;2022-07-22T05:16:47;98633.09;;;40.25;37.99
9415;BME280;4746;35.664;139.738;2022-07-22T05:19:15;98649.03;;;40.20;38.60
9415;BME280;4746;35.664;139.738;2022-07-22T05:21:43;98637.25;;;40.21;38.45
9415;BME280;4746;35.664;139.738;2022-07-22T05:24:10;98626.47;;;40.34;38.09
9415;BME280;4746;35.664;139.738;2022-07-22T05:26:38;98629.88;;;40.53;37.59
9415;BME280;4746;35.664;139.738;2022-07-22T05:29:06;98644.31;;;40.90;36.92
9415;BME280;4746;35.664;139.738;2022-07-22T05:31:34;98628.88;;;41.03;36.48
9415;BME280;4746;35.664;139.738;2022-07-22T05:34:01;98639.53;;;41.22;36.20
9415;BME280;4746;35.664;139.738;2022-07-22T05:36:30;98623.69;;;41.32;36.20
9415;BME280;4746;35.664;139.738;2022-07-22T05:38:57;98610.94;;;41.46;35.52
9415;BME280;4746;35.664;139.738;2022-07-22T05:41:25;98620.22;;;41.50;35.69
9415;BME280;4746;35.664;139.738;2022-07-22T05:43:52;98626.97;;;41.77;35.22
9415;BME280;4746;35.664;139.738;2022-07-22T05:46:20;98613.19;;;41.85;34.48
9415;BME280;4746;35.664;139.738;2022-07-22T05:48:48;98618.53;;;41.91;35.42
9415;BME280;4746;35.664;139.738;2022-07-22T05:51:16;98604.22;;;42.08;34.61
9415;BME280;4746;35.664;139.738;2022-07-22T05:53:43;98603.09;;;42.34;34.00
9415;BME280;4746;35.664;139.738;2022-07-22T05:56:11;98603.81;;;42.70;33.42
9415;BME280;4746;35.664;139.738;2022-07-22T05:58:41;98586.84;;;43.04;33.39
9415;BME280;4746;35.664;139.738;2022-07-22T06:01:10;98579.94;;;43.08;33.15
9415;BME280;4746;35.664;139.738;2022-07-22T06:03:38;98595.91;;;43.21;33.08
9415;BME280;4746;35.664;139.738;2022-07-22T06:06:06;98597.09;;;43.47;32.83
9415;BME280;4746;35.664;139.738;2022-07-22T06:08:36;98595.75;;;43.84;32.19
9415;BME280;4746;35.664;139.738;2022-07-22T06:11:04;98595.38;;;44.31;31.76
9415;BME280;4746;35.664;139.738;2022-07-22T06:13:32;98594.47;;;44.70;31.13
9415;BME280;4746;35.664;139.738;2022-07-22T06:16:00;98596.66;;;45.17;30.54
9415;BME280;4746;35.664;139.738;2022-07-22T06:18:28;98595.28;;;45.69;29.99
9415;BME280;4746;35.664;139.738;2022-07-22T06:20:55;98606.50;;;45.61;30.05
9415;BME280;4746;35.664;139.738;2022-07-22T06:23:26;98583.81;;;45.29;30.53
9415;BME280;4746;35.664;139.738;2022-07-22T06:25:54;98583.00;;;45.29;31.22
9415;BME280;4746;35.664;139.738;2022-07-22T06:28:21;98582.00;;;45.51;30.42
9415;BME280;4746;35.664;139.738;2022-07-22T06:30:49;98575.88;;;46.46;29.04
9415;BME280;4746;35.664;139.738;2022-07-22T06:33:17;98580.31;;;47.19;27.94
9415;BME280;4746;35.664;139.738;2022-07-22T06:35:45;98576.78;;;48.21;26.95
9415;BME280;4746;35.664;139.738;2022-07-22T06:38:12;98565.44;;;49.19;25.54
9415;BME280;4746;35.664;139.738;2022-07-22T06:40:40;98578.81;;;49.00;25.99
9415;BME280;4746;35.664;139.738;2022-07-22T06:43:07;98586.59;;;49.56;25.17
9415;BME280;4746;35.664;139.738;2022-07-22T06:45:35;98574.94;;;50.19;24.37
9415;BME280;4746;35.664;139.738;2022-07-22T06:48:03;98561.13;;;51.10;23.59
9415;BME280;4746;35.664;139.738;2022-07-22T06:50:30;98572.31;;;51.14;23.67
9415;BME280;4746;35.664;139.738;2022-07-22T06:52:58;98579.41;;;49.95;24.53
9415;BME280;4746;35.664;139.738;2022-07-22T06:55:26;98576.75;;;49.70;24.93
9415;BME280;4746;35.664;139.738;2022-07-22T06:57:53;98586.31;;;50.31;24.35
9415;BME280;4746;35.664;139.738;2022-07-22T07:00:21;98585.63;;;51.20;23.00
9415;BME280;4746;35.664;139.738;2022-07-22T07:02:49;98577.47;;;51.67;22.92
9415;BME280;4746;35.664;139.738;2022-07-22T07:05:16;98565.16;;;51.93;22.40
9415;BME280;4746;35.664;139.738;2022-07-22T07:07:44;98558.88;;;51.69;22.97
9415;BME280;4746;35.664;139.738;2022-07-22T07:10:11;98561.34;;;52.31;21.92
9415;BME280;4746;35.664;139.738;2022-07-22T07:12:42;98573.31;;;52.71;21.75
9415;BME280;4746;35.664;139.738;2022-07-22T07:15:10;98561.00;;;52.87;21.46
9415;BME280;4746;35.664;139.738;2022-07-22T07:17:39;98577.75;;;52.86;21.14
9415;BME280;4746;35.664;139.738;2022-07-22T07:20:07;98574.59;;;52.92;21.17
9415;BME280;4746;35.664;139.738;2022-07-22T07:22:35;98573.38;;;52.85;21.50
9415;BME280;4746;35.664;139.738;2022-07-22T07:25:08;98560.53;;;52.30;21.84
9415;BME280;4746;35.664;139.738;2022-07-22T07:27:35;98560.88;;;52.60;21.88
9415;BME280;4746;35.664;139.738;2022-07-22T07:30:07;98564.56;;;52.69;21.44
9415;BME280;4746;35.664;139.738;2022-07-22T07:32:37;98559.09;;;53.01;21.07
9415;BME280;4746;35.664;139.738;2022-07-22T07:35:07;98560.47;;;53.17;20.98
9415;BME280;4746;35.664;139.738;2022-07-22T07:37:34;98565.88;;;53.22;20.44
9415;BME280;4746;35.664;139.738;2022-07-22T07:40:03;98561.91;;;53.28;20.21
9415;BME280;4746;35.664;139.738;2022-07-22T07:42:31;98563.47;;;53.74;20.40
9415;BME280;4746;35.664;139.738;2022-07-22T07:44:59;98560.88;;;54.31;19.84
9415;BME280;4746;35.664;139.738;2022-07-22T07:47:27;98556.75;;;54.42;19.51
9415;BME280;4746;35.664;139.738;2022-07-22T07:49:54;98556.94;;;54.46;19.43
9415;BME280;4746;35.664;139.738;2022-07-22T07:52:23;98544.06;;;54.68;19.47
9415;BME280;4746;35.664;139.738;2022-07-22T07:54:50;98544.91;;;54.99;18.77
9415;BME280;4746;35.664;139.738;2022-07-22T07:57:20;98562.94;;;55.13;18.76
9415;BME280;4746;35.664;139.738;2022-07-22T07:59:47;98542.13;;;55.21;18.42
9415;BME280;4746;35.664;139.738;2022-07-22T08:02:15;98536.84;;;55.33;17.97
9415;BME280;4746;35.664;139.738;2022-07-22T08:04:42;98552.53;;;55.02;18.52
9415;BME280;4746;35.664;139.738;2022-07-22T08:07:10;98538.09;;;54.74;18.36
9415;BME280;4746;35.664;139.738;2022-07-22T08:09:38;98551.72;;;54.22;19.29
9415;BME280;4746;35.664;139.738;2022-07-22T08:12:06;98548.44;;;53.98;19.45
9415;BME280;4746;35.664;139.738;2022-07-22T08:14:34;98552.81;;;53.73;19.43
9415;BME280;4746;35.664;139.738;2022-07-22T08:17:02;98543.66;;;53.64;19.76
9415;BME280;4746;35.664;139.738;2022-07-22T08:19:30;98552.69;;;53.64;19.79
9415;BME280;4746;35.664;139.738;2022-07-22T08:21:58;98549.66;;;53.39;20.18
9415;BME280;4746;35.664;139.738;2022-07-22T08:24:25;98563.25;;;52.99;20.57
9415;BME280;4746;35.664;139.738;2022-07-22T08:26:53;98549.38;;;52.45;20.55
9415;BME280;4746;35.664;139.738;2022-07-22T08:29:21;98550.09;;;52.14;21.26
9415;BME280;4746;35.664;139.738;2022-07-22T08:31:48;98540.00;;;51.91;21.36
9415;BME280;4746;35.664;139.738;2022-07-22T08:34:16;98556.97;;;51.46;22.20
9415;BME280;4746;35.664;139.738;2022-07-22T08:36:44;98549.31;;;51.20;21.92
9415;BME280;4746;35.664;139.738;2022-07-22T08:39:12;98548.63;;;51.04;21.90
9415;BME280;4746;35.664;139.738;2022-07-22T08:41:40;98530.28;;;50.77;21.86
9415;BME280;4746;35.664;139.738;2022-07-22T08:44:09;98556.25;;;50.36;22.07
9415;BME280;4746;35.664;139.738;2022-07-22T08:46:38;98552.53;;;49.64;22.14
9415;BME280;4746;35.664;139.738;2022-07-22T08:49:06;98533.06;;;48.87;23.02
9415;BME280;4746;35.664;139.738;2022-07-22T08:51:35;98552.88;;;48.43;23.47
9415;BME280;4746;35.664;139.738;2022-07-22T08:54:02;98555.50;;;48.08;24.38
9415;BME280;4746;35.664;139.738;2022-07-22T08:56:30;98554.53;;;47.73;24.45
9415;BME280;4746;35.664;139.738;2022-07-22T08:58:58;98564.13;;;47.34;25.38
9415;BME280;4746;35.664;139.738;2022-07-22T09:01:26;98557.41;;;47.06;25.95
9415;BME280;4746;35.664;139.738;2022-07-22T09:03:59;98541.97;;;47.11;25.97
9415;BME280;4746;35.664;139.738;2022-07-22T09:06:28;98552.16;;;46.94;26.42
9415;BME280;4746;35.664;139.738;2022-07-22T09:09:03;98552.81;;;46.75;26.75
9415;BME280;4746;35.664;139.738;2022-07-22T09:11:32;98555.69;;;46.11;27.18
9415;BME280;4746;35.664;139.738;2022-07-22T09:14:01;98565.63;;;44.92;28.57
9415;BME280;4746;35.664;139.738;2022-07-22T09:16:46;98569.47;;;43.57;30.32
9415;BME280;4746;35.664;139.738;2022-07-22T09:19:15;98574.69;;;42.31;32.26
9415;BME280;4746;35.664;139.738;2022-07-22T09:21:45;98570.16;;;41.49;33.46
9415;BME280;4746;35.664;139.738;2022-07-22T09:24:31;98583.19;;;40.79;34.19
9415;BME280;4746;35.664;139.738;2022-07-22T09:26:59;98577.00;;;40.04;35.67
9415;BME280;4746;35.664;139.738;2022-07-22T09:29:27;98570.00;;;39.40;36.56
9415;BME280;4746;35.664;139.738;2022-07-22T09:31:55;98572.31;;;38.85;37.47
9415;BME280;4746;35.664;139.738;2022-07-22T09:34:33;98578.44;;;38.46;38.18
9415;BME280;4746;35.664;139.738;2022-07-22T09:37:01;98586.56;;;38.06;39.18
9415;BME280;4746;35.664;139.738;2022-07-22T09:39:31;98590.72;;;37.68;40.25
9415;BME280;4746;35.664;139.738;2022-07-22T09:42:07;98570.38;;;37.34;40.38
9415;BME280;4746;35.664;139.738;2022-07-22T09:44:35;98590.28;;;37.04;41.79
9415;BME280;4746;35.664;139.738;2022-07-22T09:47:03;98583.69;;;36.79;41.79
9415;BME280;4746;35.664;139.738;2022-07-22T09:49:36;98583.06;;;36.56;42.28
9415;BME280;4746;35.664;139.738;2022-07-22T09:52:07;98584.94;;;36.20;43.37
9415;BME280;4746;35.664;139.738;2022-07-22T09:54:35;98587.66;;;35.92;44.25
9415;BME280;4746;35.664;139.738;2022-07-22T09:57:03;98591.91;;;35.72;44.78
9415;BME280;4746;35.664;139.738;2022-07-22T09:59:30;98593.38;;;35.60;45.43
9415;BME280;4746;35.664;139.738;2022-07-22T10:02:03;98592.84;;;35.50;45.52
9415;BME280;4746;35.664;139.738;2022-07-22T10:04:35;98597.97;;;35.37;45.65
9415;BME280;4746;35.664;139.738;2022-07-22T10:07:04;98602.00;;;35.19;46.04
9415;BME280;4746;35.664;139.738;2022-07-22T10:09:32;98600.59;;;35.08;46.15
9415;BME280;4746;35.664;139.738;2022-07-22T10:12:01;98591.38;;;34.96;46.64
9415;BME280;4746;35.664;139.738;2022-07-22T10:14:30;98589.44;;;34.90;47.18
9415;BME280;4746;35.664;139.738;2022-07-22T10:17:00;98597.94;;;34.86;47.17
9415;BME280;4746;35.664;139.738;2022-07-22T10:19:28;98600.50;;;34.79;47.05
9415;BME280;4746;35.664;139.738;2022-07-22T10:21:56;98611.69;;;34.75;47.69
9415;BME280;4746;35.664;139.738;2022-07-22T10:24:24;98602.94;;;34.66;47.44
9415;BME280;4746;35.664;139.738;2022-07-22T10:26:57;98600.28;;;34.66;48.01
9415;BME280;4746;35.664;139.738;2022-07-22T10:29:39;98608.66;;;34.63;47.86
9415;BME280;4746;35.664;139.738;2022-07-22T10:37:37;98606.13;;;34.40;48.31
9415;BME280;4746;35.664;139.738;2022-07-22T10:40:28;98618.16;;;34.36;48.59
9415;BME280;4746;35.664;139.738;2022-07-22T10:43:04;98607.72;;;34.26;48.70
9415;BME280;4746;35.664;139.738;2022-07-22T10:45:47;98604.28;;;34.18;49.12
9415;BME280;4746;35.664;139.738;2022-07-22T10:48:44;98610.25;;;34.20;48.89
9415;BME280;4746;35.664;139.738;2022-07-22T10:51:20;98617.63;;;34.10;49.13
9415;BME280;4746;35.664;139.738;2022-07-22T10:54:03;98635.59;;;34.08;49.36
9415;BME280;4746;35.664;139.738;2022-07-22T10:56:36;98625.78;;;34.00;49.86
9415;BME280;4746;35.664;139.738;2022-07-22T10:59:14;98618.66;;;34.01;49.81
9415;BME280;4746;35.664;139.738;2022-07-22T11:01:47;98637.97;;;33.95;49.89
9415;BME280;4746;35.664;139.738;2022-07-22T11:04:22;98629.31;;;33.93;50.50
9415;BME280;4746;35.664;139.738;2022-07-22T11:06:56;98635.81;;;33.90;50.31
9415;BME280;4746;35.664;139.738;2022-07-22T11:09:33;98632.50;;;33.88;50.40
9415;BME280;4746;35.664;139.738;2022-07-22T11:12:01;98643.19;;;33.81;50.99
9415;BME280;4746;35.664;139.738;2022-07-22T11:14:34;98644.66;;;33.83;50.89
9415;BME280;4746;35.664;139.738;2022-07-22T11:17:11;98649.97;;;33.83;50.89
9415;BME280;4746;35.664;139.738;2022-07-22T11:19:42;98651.84;;;33.75;51.35
9415;BME280;4746;35.664;139.738;2022-07-22T11:22:13;98649.00;;;33.76;51.58
9415;BME280;4746;35.664;139.738;2022-07-22T11:24:48;98659.63;;;33.76;51.60
9415;BME280;4746;35.664;139.738;2022-07-22T11:27:18;98660.97;;;33.72;51.68
9415;BME280;4746;35.664;139.738;2022-07-22T11:29:54;98662.47;;;33.75;52.27
9415;BME280;4746;35.664;139.738;2022-07-22T11:32:26;98658.31;;;33.72;51.80
9415;BME280;4746;35.664;139.738;2022-07-22T11:34:59;98663.97;;;33.69;52.11
9415;BME280;4746;35.664;139.738;2022-07-22T11:37:28;98664.16;;;33.68;51.98
9415;BME280;4746;35.664;139.738;2022-07-22T11:40:07;98662.81;;;33.72;51.88
9415;BME280;4746;35.664;139.738;2022-07-22T11:42:35;98673.31;;;33.65;52.03
9415;BME280;4746;35.664;139.738;2022-07-22T11:45:04;98668.00;;;33.65;52.07
9415;BME280;4746;35.664;139.738;2022-07-22T11:47:32;98672.81;;;33.62;52.44
9415;BME280;4746;35.664;139.738;2022-07-22T11:49:59;98676.66;;;33.59;52.54
9415;BME280;4746;35.664;139.738;2022-07-22T11:52:27;98673.31;;;33.57;52.69
9415;BME280;4746;35.664;139.738;2022-07-22T11:54:55;98673.50;;;33.56;52.74
9415;BME280;4746;35.664;139.738;2022-07-22T11:57:22;98677.97;;;33.55;52.46
9415;BME280;4746;35.664;139.738;2022-07-22T11:59:50;98674.50;;;33.55;52.63
9415;BME280;4746;35.664;139.738;2022-07-22T12:02:18;98674.50;;;33.55;52.09
9415;BME280;4746;35.664;139.738;2022-07-22T12:04:47;98685.25;;;33.53;52.45
9415;BME280;4746;35.664;139.738;2022-07-22T12:07:16;98694.22;;;33.52;52.54
9415;BME280;4746;35.664;139.738;2022-07-22T12:09:45;98687.44;;;33.50;52.56
9415;BME280;4746;35.664;139.738;2022-07-22T12:12:13;98697.22;;;33.49;52.46
9415;BME280;4746;35.664;139.738;2022-07-22T12:14:47;98701.22;;;33.53;52.57
9415;BME280;4746;35.664;139.738;2022-07-22T12:17:15;98693.25;;;33.45;52.28
9415;BME280;4746;35.664;139.738;2022-07-22T12:19:43;98689.28;;;33.41;52.20
9415;BME280;4746;35.664;139.738;2022-07-22T12:22:22;98678.97;;;33.38;52.51
9415;BME280;4746;35.664;139.738;2022-07-22T12:25:02;98684.94;;;33.40;52.14
9415;BME280;4746;35.664;139.738;2022-07-22T12:27:30;98680.81;;;33.30;52.37
9415;BME280;4746;35.664;139.738;2022-07-22T12:29:57;98701.56;;;33.26;52.42
9415;BME280;4746;35.664;139.738;2022-07-22T12:32:27;98681.16;;;33.27;52.27
9415;BME280;4746;35.664;139.738;2022-07-22T12:34:56;98681.66;;;33.22;52.35
9415;BME280;4746;35.664;139.738;2022-07-22T12:37:34;98678.66;;;33.25;52.28
9415;BME280;4746;35.664;139.738;2022-07-22T12:40:20;98686.78;;;33.24;52.52
9415;BME280;4746;35.664;139.738;2022-07-22T12:43:07;98692.28;;;33.22;51.77
9415;BME280;4746;35.664;139.738;2022-07-22T12:45:39;98692.63;;;33.12;52.78
9415;BME280;4746;35.664;139.738;2022-07-22T12:48:09;98684.16;;;33.08;53.26
9415;BME280;4746;35.664;139.738;2022-07-22T12:50:57;98679.16;;;33.13;53.00
9415;BME280;4746;35.664;139.738;2022-07-22T12:53:26;98701.06;;;33.07;52.87
9415;BME280;4746;35.664;139.738;2022-07-22T12:55:59;98677.63;;;33.03;52.84
9415;BME280;4746;35.664;139.738;2022-07-22T12:58:31;98678.97;;;32.99;53.54
9415;BME280;4746;35.664;139.738;2022-07-22T13:01:01;98695.56;;;32.93;53.33
9415;BME280;4746;35.664;139.738;2022-07-22T13:03:29;98676.47;;;32.89;53.34
9415;BME280;4746;35.664;139.738;2022-07-22T13:06:00;98680.31;;;32.87;53.39
9415;BME280;4746;35.664;139.738;2022-07-22T13:08:29;98674.31;;;32.85;53.57
9415;BME280;4746;35.664;139.738;2022-07-22T13:10:58;98678.31;;;32.81;53.77
9415;BME280;4746;35.664;139.738;2022-07-22T13:13:26;98668.38;;;32.83;53.81
9415;BME280;4746;35.664;139.738;2022-07-22T13:15:54;98685.28;;;32.82;53.71